createdAt,value
2019-04-26T00:02:04.482Z,8.90
2019-04-26T00:04:38.234Z,8.91
2019-04-26T00:07:10.690Z,8.99
2019-04-26T00:09:43.079Z,9.01
2019-04-26T00:12:36.316Z,9.07
2019-04-26T00:15:27.113Z,9.12
2019-04-26T00:18:01.158Z,9.19
2019-04-26T00:20:35.295Z,9.21
2019-04-26T00:23:07.099Z,9.25
2019-04-26T00:25:38.902Z,9.33
2019-04-26T00:28:11.710Z,9.34
2019-04-26T00:30:44.201Z,9.11
2019-04-26T00:33:15.987Z,9.02
2019-04-26T00:35:48.912Z,9.03
2019-04-26T00:38:22.409Z,9.09
2019-04-26T00:40:55.380Z,8.94
2019-04-26T00:43:27.750Z,8.93
2019-04-26T00:46:02.253Z,8.98
2019-04-26T00:48:35.575Z,8.90
2019-04-26T00:51:09.925Z,8.81
2019-04-26T00:53:44.601Z,8.81
2019-04-26T00:56:18.050Z,8.67
2019-04-26T00:58:50.190Z,8.69
2019-04-26T01:01:24.933Z,8.70
2019-04-26T01:03:56.974Z,8.79
2019-04-26T01:06:34.082Z,8.79
2019-04-26T01:09:08.106Z,8.82
2019-04-26T01:11:41.283Z,8.78
2019-04-26T01:14:13.963Z,8.74
2019-04-26T01:16:45.604Z,8.62
2019-04-26T01:19:20.276Z,8.64
2019-04-26T01:21:55.124Z,8.58
2019-04-26T01:24:30.253Z,8.57
2019-04-26T01:27:05.515Z,8.65
2019-04-26T01:29:39.220Z,8.66
2019-04-26T01:32:13.226Z,8.71
2019-04-26T01:34:47.250Z,8.77
2019-04-26T01:37:20.321Z,8.80
2019-04-26T01:39:58.828Z,8.85
2019-04-26T01:42:42.822Z,8.76
2019-04-26T01:45:23.657Z,8.62
2019-04-26T01:47:58.341Z,8.71
2019-04-26T01:50:31.707Z,8.69
2019-04-26T01:53:07.436Z,8.69
2019-04-26T01:55:39.379Z,8.70
2019-04-26T01:58:12.051Z,8.69
2019-04-26T02:01:01.005Z,8.65
2019-04-26T02:03:33.962Z,8.66
2019-04-26T02:06:06.032Z,8.59
2019-04-26T02:08:37.902Z,8.55
2019-04-26T02:11:10.021Z,8.51
2019-04-26T02:13:41.865Z,8.46
2019-04-26T02:16:13.642Z,8.58
2019-04-26T02:18:46.979Z,8.57
2019-04-26T02:21:29.807Z,8.51
2019-04-26T02:24:07.224Z,8.45
2019-04-26T02:26:41.428Z,8.56
2019-04-26T02:29:17.626Z,8.58
2019-04-26T02:31:53.137Z,8.60
2019-04-26T02:34:29.228Z,8.60
2019-04-26T02:37:02.376Z,8.65
2019-04-26T02:39:40.259Z,8.64
2019-04-26T02:42:40.570Z,8.74
2019-04-26T02:45:45.046Z,8.70
2019-04-26T02:48:40.741Z,8.78
2019-04-26T02:51:17.764Z,8.76
2019-04-26T02:54:03.102Z,8.80
2019-04-26T02:56:41.385Z,8.82
2019-04-26T02:59:38.182Z,8.65
2019-04-26T03:02:21.741Z,8.66
2019-04-26T03:05:00.136Z,8.69
2019-04-26T03:08:01.169Z,8.66
2019-04-26T03:10:40.370Z,8.56
2019-04-26T03:13:22.567Z,8.53
2019-04-26T03:16:33.532Z,8.49
2019-04-26T03:19:31.456Z,8.60
2019-04-26T03:22:27.003Z,8.71
2019-04-26T03:25:20.784Z,8.60
2019-04-26T03:28:24.305Z,8.52
2019-04-26T03:31:53.426Z,8.53
2019-04-26T03:34:27.856Z,8.66
2019-04-26T03:38:13.634Z,8.51
2019-04-26T03:41:12.535Z,8.52
2019-04-26T03:44:14.513Z,8.63
2019-04-26T03:47:00.491Z,8.78
2019-04-26T03:50:08.658Z,8.72
2019-04-26T03:53:19.516Z,8.81
2019-04-26T03:56:17.529Z,8.73
2019-04-26T03:59:20.707Z,8.78
2019-04-26T04:02:08.010Z,8.88
2019-04-26T04:04:53.154Z,8.92
2019-04-26T04:07:37.128Z,8.94
2019-04-26T04:10:07.965Z,8.87
2019-04-26T04:12:52.904Z,8.89
2019-04-26T04:15:31.221Z,8.82
2019-04-26T04:18:10.443Z,9.00
2019-04-26T04:21:34.381Z,9.01
2019-04-26T04:24:09.332Z,9.08
2019-04-26T04:27:11.327Z,9.02
2019-04-26T04:29:56.013Z,9.02
2019-04-26T04:32:42.583Z,8.94
2019-04-26T04:35:17.123Z,8.90
2019-04-26T04:38:08.413Z,8.97
2019-04-26T04:41:10.316Z,9.02
2019-04-26T04:43:50.953Z,9.01
2019-04-26T04:47:22.260Z,9.01
2019-04-26T04:50:06.803Z,8.99
2019-04-26T04:52:54.816Z,9.09
2019-04-26T04:55:39.902Z,9.21
2019-04-26T04:58:20.513Z,9.34
2019-04-26T05:01:46.702Z,9.37
2019-04-26T05:04:29.197Z,9.48
2019-04-26T05:07:30.918Z,9.38
2019-04-26T05:10:15.791Z,9.43
2019-04-26T05:13:05.120Z,9.55
2019-04-26T05:16:34.203Z,9.62
2019-04-26T05:19:57.943Z,9.60
2019-04-26T05:23:11.768Z,9.59
2019-04-26T05:26:32.526Z,9.71
2019-04-26T05:29:58.153Z,9.85
2019-04-26T05:33:00.096Z,9.80
2019-04-26T05:36:06.279Z,9.89
2019-04-26T05:39:10.170Z,9.84
2019-04-26T05:42:49.745Z,9.91
2019-04-26T05:46:27.202Z,9.99
2019-04-26T05:49:51.705Z,10.21
2019-04-26T05:53:04.199Z,10.39
2019-04-26T05:56:39.267Z,10.35
2019-04-26T05:59:44.153Z,10.31
2019-04-26T06:02:54.687Z,10.47
2019-04-26T06:06:05.221Z,10.52
2019-04-26T06:09:27.486Z,10.74
2019-04-26T06:12:16.718Z,10.89
2019-04-26T06:15:15.816Z,10.88
2019-04-26T06:18:22.716Z,11.02
2019-04-26T06:21:21.133Z,11.04
2019-04-26T06:24:23.785Z,11.26
2019-04-26T06:27:14.087Z,11.49
2019-04-26T06:30:03.355Z,11.49
2019-04-26T06:33:06.420Z,11.72
2019-04-26T06:35:43.771Z,12.07
2019-04-26T06:38:51.173Z,12.56
2019-04-26T06:42:05.638Z,12.65
2019-04-26T06:45:30.891Z,12.65
2019-04-26T06:48:17.678Z,12.79
2019-04-26T06:50:58.387Z,12.82
2019-04-26T06:54:15.918Z,12.83
2019-04-26T06:57:19.772Z,12.98
2019-04-26T07:00:28.942Z,13.08
2019-04-26T07:03:25.351Z,13.29
2019-04-26T07:06:00.864Z,13.43
2019-04-26T07:08:57.569Z,13.71
2019-04-26T07:12:22.008Z,13.68
2019-04-26T07:15:31.227Z,13.87
2019-04-26T07:18:36.287Z,14.09
2019-04-26T07:21:33.286Z,14.17
2019-04-26T07:25:08.974Z,14.30
2019-04-26T07:28:12.468Z,14.15
2019-04-26T07:31:09.766Z,14.32
2019-04-26T07:34:16.856Z,14.30
2019-04-26T07:37:31.935Z,14.33
2019-04-26T07:40:44.980Z,14.62
2019-04-26T07:44:08.146Z,14.73
2019-04-26T07:47:26.324Z,14.75
2019-04-26T07:50:33.336Z,14.88
2019-04-26T07:53:31.484Z,15.13
2019-04-26T07:56:49.446Z,15.44
2019-04-26T08:00:01.198Z,15.69
2019-04-26T08:03:01.012Z,15.65
2019-04-26T08:05:44.264Z,15.88
2019-04-26T08:08:20.958Z,16.05
2019-04-26T08:11:06.186Z,15.86
2019-04-26T08:13:45.900Z,15.91
2019-04-26T08:16:36.074Z,16.29
2019-04-26T08:19:12.602Z,16.43
2019-04-26T08:21:49.074Z,16.41
2019-04-26T08:24:28.394Z,16.40
2019-04-26T08:27:18.860Z,16.58
2019-04-26T08:29:46.822Z,16.56
2019-04-26T08:32:28.228Z,16.67
2019-04-26T08:35:21.969Z,17.02
2019-04-26T08:37:58.679Z,17.19
2019-04-26T08:40:32.589Z,17.39
2019-04-26T08:43:36.934Z,17.42
2019-04-26T08:46:28.346Z,17.22
2019-04-26T08:49:27.473Z,17.03
2019-04-26T08:52:13.976Z,17.39
2019-04-26T08:54:42.672Z,17.57
2019-04-26T08:57:16.260Z,17.59
2019-04-26T08:59:52.185Z,17.60
2019-04-26T09:03:10.785Z,17.77
2019-04-26T09:05:56.314Z,18.23
2019-04-26T09:08:31.957Z,18.06
2019-04-26T09:11:05.945Z,18.03
2019-04-26T09:13:41.549Z,18.03
2019-04-26T09:16:16.145Z,18.52
2019-04-26T09:18:54.286Z,18.70
2019-04-26T09:21:36.401Z,18.70
2019-04-26T09:24:24.962Z,18.73
2019-04-26T09:27:17.211Z,19.01
2019-04-26T09:30:06.281Z,18.91
2019-04-26T09:33:09.199Z,18.98
2019-04-26T09:35:41.328Z,18.77
2019-04-26T09:38:12.999Z,18.65
2019-04-26T09:40:44.887Z,18.47
2019-04-26T09:43:31.763Z,18.53
2019-04-26T09:46:25.038Z,18.70
2019-04-26T09:49:16.919Z,18.50
2019-04-26T09:51:48.890Z,18.78
2019-04-26T09:54:20.661Z,18.46
2019-04-26T09:56:52.420Z,18.70
2019-04-26T09:59:25.437Z,19.03
2019-04-26T10:01:59.430Z,19.21
2019-04-26T10:04:30.773Z,19.29
2019-04-26T10:07:03.219Z,18.82
2019-04-26T10:09:35.970Z,18.38
2019-04-26T10:12:35.610Z,18.62
2019-04-26T10:15:18.265Z,18.79
2019-04-26T10:17:51.150Z,18.47
2019-04-26T10:20:23.052Z,18.32
2019-04-26T10:22:54.960Z,18.17
2019-04-26T10:25:27.119Z,18.57
2019-04-26T10:27:59.658Z,18.47
2019-04-26T10:30:31.627Z,18.40
2019-04-26T10:33:03.595Z,18.22
2019-04-26T10:35:35.369Z,18.47
2019-04-26T10:38:09.490Z,18.74
2019-04-26T10:40:41.257Z,18.88
2019-04-26T10:43:13.944Z,19.03
2019-04-26T10:45:53.504Z,19.03
2019-04-26T10:48:19.659Z,18.95
2019-04-26T10:50:51.437Z,19.26
2019-04-26T10:53:31.956Z,19.31
2019-04-26T10:56:20.189Z,18.90
2019-04-26T10:59:31.819Z,18.48
2019-04-26T11:02:05.526Z,18.73
2019-04-26T11:04:41.494Z,18.79
2019-04-26T11:07:11.807Z,18.78
2019-04-26T11:09:44.007Z,18.96
2019-04-26T11:12:18.098Z,19.20
2019-04-26T11:14:53.340Z,18.66
2019-04-26T11:17:24.669Z,18.91
2019-04-26T11:19:56.618Z,19.05
2019-04-26T11:22:33.125Z,19.14
2019-04-26T11:25:02.857Z,19.20
2019-04-26T11:27:35.873Z,19.58
2019-04-26T11:30:12.265Z,19.09
2019-04-26T11:32:42.070Z,19.08
2019-04-26T11:35:13.990Z,18.69
2019-04-26T11:37:46.548Z,19.07
2019-04-26T11:40:20.021Z,19.36
2019-04-26T11:42:51.997Z,19.25
2019-04-26T11:45:24.022Z,19.18
2019-04-26T11:47:56.701Z,19.06
2019-04-26T11:50:28.427Z,18.78
2019-04-26T11:53:00.076Z,18.90
2019-04-26T11:55:31.885Z,18.56
2019-04-26T11:58:03.990Z,18.52
2019-04-26T12:00:41.040Z,18.66
2019-04-26T12:03:12.677Z,18.69
2019-04-26T12:06:01.593Z,18.75
2019-04-26T12:08:55.265Z,19.16
2019-04-26T12:11:34.203Z,18.74
2019-04-26T12:14:03.781Z,18.65
2019-04-26T12:16:46.778Z,18.22
2019-04-26T12:19:07.819Z,18.16
2019-04-26T12:21:40.203Z,17.75
2019-04-26T12:24:14.911Z,17.73
2019-04-26T12:26:46.617Z,17.84
2019-04-26T12:29:18.310Z,17.71
2019-04-26T12:31:50.098Z,17.66
2019-04-26T12:34:21.989Z,17.83
2019-04-26T12:36:53.729Z,17.73
2019-04-26T12:39:25.644Z,17.40
2019-04-26T12:41:57.532Z,17.57
2019-04-26T12:44:36.461Z,17.65
2019-04-26T12:47:13.884Z,17.35
2019-04-26T12:49:45.683Z,17.02
2019-04-26T12:52:21.556Z,16.73
2019-04-26T12:54:51.875Z,16.76
2019-04-26T12:57:23.782Z,17.18
2019-04-26T12:59:57.670Z,17.13
2019-04-26T13:02:29.510Z,17.05
2019-04-26T13:05:01.357Z,16.74
2019-04-26T13:07:33.361Z,16.58
2019-04-26T13:10:23.886Z,16.67
2019-04-26T13:13:14.335Z,16.60
2019-04-26T13:16:21.635Z,16.64
2019-04-26T13:18:55.401Z,16.33
2019-04-26T13:21:27.281Z,16.20
2019-04-26T13:24:00.199Z,16.26
2019-04-26T13:26:34.763Z,16.23
2019-04-26T13:29:08.100Z,16.14
2019-04-26T13:31:39.850Z,16.12
2019-04-26T13:34:14.543Z,15.93
2019-04-26T13:36:46.786Z,15.68
2019-04-26T13:39:22.555Z,15.69
2019-04-26T13:42:02.999Z,15.65
2019-04-26T13:44:48.984Z,15.49
2019-04-26T13:47:45.014Z,15.31
2019-04-26T13:50:26.683Z,15.37
2019-04-26T13:52:59.485Z,15.32
2019-04-26T13:55:33.628Z,15.18
2019-04-26T13:58:04.620Z,15.07
2019-04-26T14:00:39.747Z,15.14
2019-04-26T14:03:10.820Z,15.08
2019-04-26T14:05:42.629Z,14.98
2019-04-26T14:08:17.653Z,14.96
2019-04-26T14:10:51.232Z,15.15
2019-04-26T14:13:24.912Z,15.26
2019-04-26T14:15:57.748Z,15.22
2019-04-26T14:18:29.964Z,15.19
2019-04-26T14:21:02.846Z,15.36
2019-04-26T14:24:09.274Z,15.37
2019-04-26T14:26:43.955Z,15.37
2019-04-26T14:29:15.800Z,15.35
2019-04-26T14:31:51.369Z,15.25
2019-04-26T14:34:23.662Z,15.26
2019-04-26T14:37:05.821Z,15.37
2019-04-26T14:39:38.221Z,15.43
2019-04-26T14:42:02.994Z,15.27
2019-04-26T14:44:34.627Z,15.39
2019-04-26T14:47:13.875Z,15.41
2019-04-26T14:49:42.916Z,15.28
2019-04-26T14:52:13.443Z,15.00
2019-04-26T14:54:46.039Z,14.80
2019-04-26T14:57:25.805Z,14.75
2019-04-26T14:59:57.815Z,14.60
2019-04-26T15:02:57.438Z,14.74
2019-04-26T15:05:46.426Z,14.61
2019-04-26T15:08:23.731Z,14.50
2019-04-26T15:11:00.912Z,14.43
2019-04-26T15:13:29.705Z,14.36
2019-04-26T15:16:03.957Z,14.42
2019-04-26T15:18:37.077Z,14.25
2019-04-26T15:21:09.225Z,14.20
2019-04-26T15:23:41.152Z,14.00
2019-04-26T15:26:14.291Z,14.09
2019-04-26T15:28:50.206Z,14.11
2019-04-26T15:31:21.499Z,14.08
2019-04-26T15:33:53.183Z,13.99
2019-04-26T15:36:25.650Z,13.86
2019-04-26T15:38:58.055Z,13.82
2019-04-26T15:41:43.101Z,13.92
2019-04-26T15:44:28.396Z,13.67
2019-04-26T15:47:06.015Z,13.51
2019-04-26T15:49:45.958Z,13.54
2019-04-26T15:52:17.629Z,13.45
2019-04-26T15:54:53.004Z,13.43
2019-04-26T15:57:24.376Z,13.36
2019-04-26T15:59:58.125Z,13.31
2019-04-26T16:02:32.103Z,13.35
2019-04-26T16:05:04.073Z,13.13
2019-04-26T16:07:36.803Z,13.15
2019-04-26T16:10:12.250Z,13.06
2019-04-26T16:12:44.068Z,13.03
2019-04-26T16:15:16.997Z,12.95
2019-04-26T16:17:49.844Z,12.92
2019-04-26T16:20:22.221Z,12.95
2019-04-26T16:22:54.738Z,12.81
2019-04-26T16:25:26.468Z,12.75
2019-04-26T16:28:15.479Z,12.68
2019-04-26T16:30:59.665Z,12.75
2019-04-26T16:33:34.610Z,12.69
2019-04-26T16:36:07.400Z,12.73
2019-04-26T16:38:39.343Z,12.68
2019-04-26T16:41:11.249Z,12.54
2019-04-26T16:43:50.961Z,12.49
2019-04-26T16:46:20.728Z,12.40
2019-04-26T16:48:49.956Z,12.34
2019-04-26T16:51:25.217Z,12.12
2019-04-26T16:56:35.650Z,12.13
2019-04-26T16:59:04.728Z,12.11
2019-04-26T17:00:33.600Z,12.12
2019-04-26T17:01:38.230Z,12.02
2019-04-26T17:04:11.432Z,11.95
2019-04-26T17:06:44.913Z,11.86
2019-04-26T17:09:18.763Z,11.88
2019-04-26T17:11:52.245Z,11.83
2019-04-26T17:14:24.590Z,11.68
2019-04-26T17:16:56.392Z,11.68
2019-04-26T17:19:29.773Z,11.75
2019-04-26T17:22:41.851Z,11.72
2019-04-26T17:25:32.103Z,11.59
2019-04-26T17:28:03.989Z,11.59
2019-04-26T17:30:41.315Z,11.53
2019-04-26T17:33:09.136Z,11.42
2019-04-26T17:35:42.047Z,11.28
2019-04-26T17:38:13.750Z,11.15
2019-04-26T17:40:46.304Z,11.17
2019-04-26T17:43:18.137Z,11.20
2019-04-26T17:45:52.311Z,11.17
2019-04-26T17:48:24.085Z,11.20
2019-04-26T17:50:55.716Z,11.09
2019-04-26T17:53:31.292Z,10.99
2019-04-26T17:56:02.434Z,11.05
2019-04-26T17:58:43.080Z,11.03
2019-04-26T18:01:07.714Z,11.05
2019-04-26T18:03:50.797Z,11.08
2019-04-26T18:06:13.992Z,11.05
2019-04-26T18:08:54.677Z,11.04
2019-04-26T18:11:24.859Z,10.94
2019-04-26T18:13:56.277Z,10.95
2019-04-26T18:16:29.643Z,10.98
2019-04-26T18:19:30.383Z,10.89
2019-04-26T18:22:20.768Z,10.92
2019-04-26T18:24:52.604Z,10.79
2019-04-26T18:27:24.374Z,10.79
2019-04-26T18:29:59.775Z,10.90
2019-04-26T18:32:41.812Z,10.91
2019-04-26T18:35:09.245Z,11.02
2019-04-26T18:37:42.596Z,10.99
2019-04-26T18:40:14.717Z,10.96
2019-04-26T18:42:46.478Z,10.95
2019-04-26T18:45:25.627Z,10.95
2019-04-26T18:47:54.846Z,11.01
2019-04-26T18:50:28.472Z,11.00
2019-04-26T18:53:19.681Z,11.13
2019-04-26T18:55:53.453Z,11.16
2019-04-26T18:58:25.239Z,11.23
2019-04-26T19:00:57.380Z,11.23
2019-04-26T19:03:31.102Z,11.17
2019-04-26T19:06:05.561Z,11.18
2019-04-26T19:08:45.545Z,11.04
2019-04-26T19:11:11.665Z,10.97
2019-04-26T19:13:56.454Z,10.85
2019-04-26T19:16:46.342Z,10.79
2019-04-26T19:19:46.073Z,10.64
2019-04-26T19:22:20.367Z,10.54
2019-04-26T19:24:54.184Z,10.50
2019-04-26T19:27:26.642Z,10.43
2019-04-26T19:29:58.385Z,10.42
2019-04-26T19:32:35.185Z,10.35
2019-04-26T19:35:07.644Z,10.31
2019-04-26T19:37:38.518Z,10.20
2019-04-26T19:40:12.274Z,10.31
2019-04-26T19:42:43.999Z,10.29
2019-04-26T19:45:48.009Z,10.31
2019-04-26T19:48:31.489Z,10.37
2019-04-26T19:51:34.096Z,10.41
2019-04-26T19:54:17.464Z,10.41
2019-04-26T19:57:12.164Z,10.49
2019-04-26T19:59:43.931Z,10.36
2019-04-26T20:02:15.908Z,10.42
2019-04-26T20:04:51.251Z,10.39
2019-04-26T20:07:28.342Z,10.21
2019-04-26T20:10:02.371Z,10.23
2019-04-26T20:12:35.140Z,10.29
2019-04-26T20:15:05.245Z,10.28
2019-04-26T20:17:37.035Z,10.23
2019-04-26T20:20:19.032Z,10.22
2019-04-26T20:22:42.298Z,10.22
2019-04-26T20:25:14.931Z,10.23
2019-04-26T20:27:46.807Z,10.18
2019-04-26T20:30:57.982Z,10.15
2019-04-26T20:33:31.243Z,10.12
2019-04-26T20:36:04.913Z,10.09
2019-04-26T20:38:45.464Z,10.01
2019-04-26T20:41:14.760Z,9.96
2019-04-26T20:43:52.343Z,9.89
2019-04-26T20:46:18.117Z,9.93
2019-04-26T20:48:51.500Z,9.98
2019-04-26T20:51:24.142Z,9.96
2019-04-26T20:53:56.274Z,9.99
2019-04-26T20:56:28.005Z,10.08
2019-04-26T20:59:01.473Z,10.10
2019-04-26T21:01:33.420Z,10.16
2019-04-26T21:04:06.272Z,9.98
2019-04-26T21:06:38.001Z,9.79
2019-04-26T21:09:12.698Z,9.78
2019-04-26T21:11:44.540Z,9.75
2019-04-26T21:14:17.313Z,9.72
2019-04-26T21:16:50.403Z,9.76
2019-04-26T21:19:22.191Z,9.84
2019-04-26T21:21:53.970Z,9.76
2019-04-26T21:24:27.402Z,9.78
2019-04-26T21:27:25.975Z,9.71
2019-04-26T21:30:15.838Z,9.69
2019-04-26T21:32:59.246Z,9.59
2019-04-26T21:35:36.895Z,9.63
2019-04-26T21:38:14.240Z,9.66
2019-04-26T21:41:04.377Z,9.58
2019-04-26T21:43:36.942Z,9.48
2019-04-26T21:46:10.348Z,9.52
2019-04-26T21:48:41.894Z,9.53
2019-04-26T21:51:16.253Z,9.45
2019-04-26T21:53:48.175Z,9.48
2019-04-26T21:56:19.771Z,9.45
2019-04-26T21:58:52.907Z,9.48
2019-04-26T22:01:25.309Z,9.47
2019-04-26T22:03:58.433Z,9.45
2019-04-26T22:06:30.758Z,9.51
2019-04-26T22:09:10.033Z,9.53
2019-04-26T22:11:56.504Z,9.63
2019-04-26T22:14:33.989Z,9.63
2019-04-26T22:17:10.603Z,9.68
2019-04-26T22:20:06.673Z,9.71
2019-04-26T22:22:56.728Z,9.72
2019-04-26T22:25:30.707Z,9.76
2019-04-26T22:28:03.383Z,9.72
2019-04-26T22:30:37.650Z,9.69
2019-04-26T22:33:09.468Z,9.73
2019-04-26T22:35:41.245Z,9.74
2019-04-26T22:38:17.488Z,9.74
2019-04-26T22:40:54.683Z,9.72
2019-04-26T22:43:38.389Z,9.71
2019-04-26T22:46:49.593Z,9.68
2019-04-26T22:49:23.136Z,9.69
2019-04-26T22:51:55.004Z,9.71
2019-04-26T22:54:26.728Z,9.65
2019-04-26T22:56:58.402Z,9.64
2019-04-26T22:59:30.167Z,9.65
2019-04-26T23:02:03.509Z,9.64
2019-04-26T23:04:35.624Z,9.70
2019-04-26T23:07:08.633Z,9.69
2019-04-26T23:09:40.459Z,9.78
2019-04-26T23:12:34.184Z,9.75
2019-04-26T23:15:30.396Z,9.76
2019-04-26T23:18:15.928Z,9.82
2019-04-26T23:21:12.006Z,9.84
2019-04-26T23:23:44.284Z,9.82
2019-04-26T23:26:16.021Z,9.82
2019-04-26T23:28:47.595Z,9.77
2019-04-26T23:31:19.287Z,9.73
2019-04-26T23:33:51.086Z,9.77
2019-04-26T23:36:24.107Z,9.76
2019-04-26T23:38:55.866Z,9.73
2019-04-26T23:41:28.281Z,9.70
2019-04-26T23:44:03.102Z,9.67
2019-04-26T23:46:35.613Z,9.58
2019-04-26T23:49:07.482Z,9.63
2019-04-26T23:51:43.086Z,9.67
2019-04-26T23:54:13.753Z,9.65
2019-04-26T23:56:45.396Z,9.62
2019-04-26T23:59:20.707Z,9.62
